Time;durP1;ratioP1;P1;durP2;ratioP2;P2;SDS_P1;SDS_P2;PMS_P1;PMS_P2;Temp;Humidity;BMP_temperature;BMP_pressure;BME280_temperature;BME280_humidity;BME280_pressure;Samples;Min_cycle;Max_cycle;Signal;HPM_P1;HPM_P2
2021/08/31 01:02:57;;;;;;;2.53;1.60;;;;;;;;;;5543410;23;20031;-92
2021/08/31 01:33:22;;;;;;;;;;;;;;;;;;;;;
2021/08/31 01:52:49;;;;;;;;;;;;;;;;;;;;;
2021/08/31 02:00:46;;;;;;;2.33;1.38;;;;;;;;;;5108334;23;20052;-89
2021/08/31 02:03:49;;;;;;;3.42;1.50;;;;;;;;;;4920797;29;20028;-96
2021/08/31 02:16:08;;;;;;;;;;;;;;;;;;;;;
2021/08/31 02:18:54;;;;;;;2.60;1.80;;;;;;;;;;4897201;29;20040;-96
2021/08/31 02:21:22;;;;;;;3.35;1.73;;;;;;;;;;4874692;29;20041;-94
2021/08/31 02:23:52;;;;;;;3.15;2.17;;;;;;;;;;4874685;29;20025;-96
2021/08/31 02:26:19;;;;;;;2.83;2.00;;;;;;;;;;4862668;29;20126;-96
2021/08/31 02:29:02;;;;;;;2.80;1.80;;;;;;;;;;4898613;29;20055;-94
2021/08/31 02:31:33;;;;;;;4.85;2.28;;;;;;;;;;4893065;29;20037;-94
2021/08/31 02:34:11;;;;;;;4.65;2.17;;;;;;;;;;4877443;29;20029;-96
2021/08/31 02:36:49;;;;;;;2.97;2.05;;;;;;;;;;4875827;29;20033;-95
2021/08/31 02:39:16;;;;;;;4.40;2.10;;;;;;;;;;4893339;29;20510;-96
2021/08/31 02:41:44;;;;;;;3.00;1.80;;;;;;;;;;4873087;29;20033;-96
2021/08/31 02:44:10;;;;;;;3.58;2.20;;;;;;;;;;4875319;29;20037;-96
2021/08/31 02:46:36;;;;;;;3.05;1.98;;;;;;;;;;4868848;29;20037;-96
2021/08/31 02:49:02;;;;;;;2.97;2.03;;;;;;;;;;4868263;29;20041;-95
2021/08/31 02:51:28;;;;;;;3.22;2.25;;;;;;;;;;4867309;29;20474;-94
2021/08/31 02:53:55;;;;;;;3.22;1.95;;;;;;;;;;4867995;29;20174;-94
2021/08/31 02:56:21;;;;;;;3.85;2.33;;;;;;;;;;4869755;29;20067;-96
2021/08/31 02:58:47;;;;;;;3.00;2.15;;;;;;;;;;4872442;29;20026;-96
2021/08/31 03:03:59;;;;;;;4.55;1.92;;;;;;;;;;4886195;29;20037;-96
2021/08/31 03:06:26;;;;;;;2.95;2.08;;;;;;;;;;4869750;29;20530;-95
2021/08/31 03:08:52;;;;;;;3.65;1.80;;;;;;;;;;4869224;29;20037;-92
2021/08/31 03:11:19;;;;;;;3.88;2.28;;;;;;;;;;4868855;29;20483;-95
2021/08/31 03:13:45;;;;;;;2.75;2.00;;;;;;;;;;4868284;29;20036;-95
2021/08/31 03:16:11;;;;;;;4.95;2.35;;;;;;;;;;4868212;29;20101;-96
2021/08/31 03:18:38;;;;;;;3.53;1.98;;;;;;;;;;4870956;29;20132;-96
2021/08/31 03:21:04;;;;;;;4.07;2.17;;;;;;;;;;4867780;29;20116;-93
2021/08/31 03:23:30;;;;;;;4.47;2.60;;;;;;;;;;4867775;29;20029;-94
2021/08/31 03:25:57;;;;;;;5.60;2.50;;;;;;;;;;4865309;29;20029;-95
2021/08/31 03:28:23;;;;;;;3.20;2.15;;;;;;;;;;4869128;29;20064;-95
2021/08/31 03:30:50;;;;;;;5.32;2.30;;;;;;;;;;4866049;29;20032;-96
2021/08/31 03:33:16;;;;;;;3.17;2.33;;;;;;;;;;4865695;29;20435;-95
2021/08/31 03:35:43;;;;;;;2.95;2.00;;;;;;;;;;4866335;29;20367;-95
2021/08/31 03:38:09;;;;;;;2.85;1.85;;;;;;;;;;4873487;29;20029;-96
2021/08/31 03:40:37;;;;;;;3.45;2.10;;;;;;;;;;4868018;29;20033;-96
2021/08/31 03:43:05;;;;;;;4.57;1.98;;;;;;;;;;4869282;29;20060;-96
2021/08/31 03:45:31;;;;;;;3.33;1.73;;;;;;;;;;4870998;29;20498;-96
2021/08/31 03:47:59;;;;;;;3.15;2.03;;;;;;;;;;4866951;29;20025;-96
2021/08/31 03:50:29;;;;;;;2.92;2.03;;;;;;;;;;4868762;29;20048;-96
2021/08/31 03:53:22;;;;;;;3.10;1.63;;;;;;;;;;4888575;29;20406;-96
2021/08/31 03:55:48;;;;;;;2.55;1.65;;;;;;;;;;4869156;29;20045;-91
2021/08/31 03:58:24;;;;;;;2.80;1.90;;;;;;;;;;4874179;29;20116;-96
2021/08/31 04:01:04;;;;;;;3.08;1.80;;;;;;;;;;4867661;29;20041;-96
2021/08/31 04:03:32;;;;;;;3.33;1.88;;;;;;;;;;4875345;29;20124;-96
2021/08/31 04:05:58;;;;;;;3.13;1.88;;;;;;;;;;4870975;29;20043;-96
2021/08/31 04:08:25;;;;;;;3.78;1.90;;;;;;;;;;4868999;29;20029;-96
2021/08/31 04:10:51;;;;;;;2.55;1.60;;;;;;;;;;4854314;29;20041;-96
2021/08/31 04:13:18;;;;;;;1.88;1.38;;;;;;;;;;4853780;29;20029;-95
2021/08/31 04:15:48;;;;;;;2.40;1.70;;;;;;;;;;4884961;29;20033;-89
2021/08/31 04:18:20;;;;;;;4.38;1.70;;;;;;;;;;4870959;29;20112;-96
2021/08/31 04:20:48;;;;;;;3.40;1.30;;;;;;;;;;4869217;29;20056;-96
2021/08/31 04:23:14;;;;;;;3.70;1.50;;;;;;;;;;4869342;29;20037;-95
2021/08/31 04:25:41;;;;;;;2.50;1.67;;;;;;;;;;4868849;29;20037;-96
2021/08/31 04:28:13;;;;;;;3.08;1.50;;;;;;;;;;4891690;29;20048;-95
2021/08/31 04:30:46;;;;;;;3.65;1.40;;;;;;;;;;4888976;29;20041;-96
2021/08/31 04:33:46;;;;;;;2.58;1.42;;;;;;;;;;4896012;29;20017;-96
2021/08/31 04:36:34;;;;;;;2.60;1.30;;;;;;;;;;4887518;29;20124;-96
2021/08/31 04:39:33;;;;;;;3.03;1.30;;;;;;;;;;4879075;29;20033;-96
2021/08/31 04:43:06;;;;;;;2.10;1.20;;;;;;;;;;4893794;29;20033;-96
2021/08/31 04:45:25;;;;;;;2.75;1.60;;;;;;;;;;4888460;29;20060;-96
2021/08/31 04:48:18;;;;;;;2.08;1.40;;;;;;;;;;4890616;29;20032;-96
2021/08/31 04:51:08;;;;;;;1.60;1.10;;;;;;;;;;4889639;29;20037;-96
2021/08/31 04:53:36;;;;;;;2.33;1.50;;;;;;;;;;4874206;29;20041;-96
2021/08/31 04:56:10;;;;;;;2.72;1.38;;;;;;;;;;4855084;29;20044;-96
2021/08/31 04:58:40;;;;;;;2.70;1.20;;;;;;;;;;4873428;29;20030;-96
2021/08/31 05:01:13;;;;;;;2.28;1.45;;;;;;;;;;4885971;29;20025;-96
2021/08/31 05:03:42;;;;;;;3.30;1.50;;;;;;;;;;4930704;23;20052;-96
2021/08/31 05:06:12;;;;;;;2.10;1.40;;;;;;;;;;4931644;29;20119;-96
2021/08/31 05:08:40;;;;;;;2.33;1.42;;;;;;;;;;4936334;29;20035;-96
2021/08/31 05:27:10;;;;;;;1.63;1.08;;;;;;;;;;5035917;23;20114;-90
2021/08/31 05:29:36;;;;;;;1.67;1.13;;;;;;;;;;4955360;28;20473;-88
2021/08/31 05:32:03;;;;;;;2.70;1.20;;;;;;;;;;4939835;29;20034;-89
2021/08/31 05:34:29;;;;;;;2.30;1.38;;;;;;;;;;4931088;29;20035;-88
2021/08/31 05:36:55;;;;;;;2.28;1.40;;;;;;;;;;4938603;29;20019;-88
2021/08/31 05:39:21;;;;;;;2.60;1.40;;;;;;;;;;4954655;29;20094;-88
2021/08/31 05:41:48;;;;;;;1.75;1.13;;;;;;;;;;4954667;29;20027;-89
2021/08/31 05:44:14;;;;;;;2.25;1.40;;;;;;;;;;4954415;29;20027;-88
2021/08/31 05:46:40;;;;;;;2.30;1.27;;;;;;;;;;4955608;29;20020;-89
2021/08/31 05:49:06;;;;;;;2.83;1.42;;;;;;;;;;4955628;28;20551;-89
2021/08/31 05:51:32;;;;;;;2.70;1.60;;;;;;;;;;4959380;29;20051;-90
2021/08/31 05:53:58;;;;;;;2.45;1.40;;;;;;;;;;4958414;29;20027;-90
2021/08/31 05:56:24;;;;;;;3.13;1.50;;;;;;;;;;4959660;29;20023;-89
2021/08/31 05:58:50;;;;;;;3.50;1.70;;;;;;;;;;4957954;29;20035;-90
2021/08/31 06:01:16;;;;;;;2.13;1.35;;;;;;;;;;4957986;29;20027;-90
2021/08/31 06:03:42;;;;;;;1.90;1.20;;;;;;;;;;4957824;29;20531;-90
2021/08/31 06:06:08;;;;;;;1.88;1.20;;;;;;;;;;4957901;29;20030;-91
2021/08/31 06:08:35;;;;;;;2.30;1.33;;;;;;;;;;4957219;29;20035;-90
2021/08/31 06:11:01;;;;;;;4.20;1.40;;;;;;;;;;4941408;29;20118;-90
2021/08/31 06:13:28;;;;;;;2.67;1.30;;;;;;;;;;4957324;29;20496;-89
2021/08/31 06:15:54;;;;;;;2.20;1.23;;;;;;;;;;4940576;29;20027;-89
2021/08/31 06:18:20;;;;;;;1.83;1.05;;;;;;;;;;4941543;29;20467;-89
2021/08/31 06:20:46;;;;;;;2.67;1.10;;;;;;;;;;4942719;29;20027;-89
2021/08/31 06:23:12;;;;;;;2.17;1.30;;;;;;;;;;4941797;29;20031;-89
2021/08/31 06:25:38;;;;;;;3.22;1.50;;;;;;;;;;4941421;29;20019;-90
2021/08/31 06:28:05;;;;;;;5.03;1.30;;;;;;;;;;4940719;29;20066;-90
2021/08/31 06:30:31;;;;;;;2.70;1.25;;;;;;;;;;4941162;29;20034;-89
2021/08/31 06:32:57;;;;;;;3.65;1.52;;;;;;;;;;4941143;29;20070;-90
2021/08/31 06:35:23;;;;;;;2.28;1.20;;;;;;;;;;4940931;29;20118;-91
2021/08/31 06:37:49;;;;;;;2.58;1.30;;;;;;;;;;4940687;29;20062;-91
2021/08/31 06:40:15;;;;;;;2.55;1.23;;;;;;;;;;4940971;29;20054;-88
2021/08/31 06:42:42;;;;;;;2.33;1.20;;;;;;;;;;4940624;29;20028;-89
2021/08/31 06:45:08;;;;;;;2.00;1.30;;;;;;;;;;4957767;29;20027;-89
2021/08/31 06:47:34;;;;;;;2.20;1.40;;;;;;;;;;4940529;29;20066;-90
2021/08/31 06:50:01;;;;;;;2.72;1.20;;;;;;;;;;4940511;29;20043;-91
2021/08/31 06:52:27;;;;;;;2.20;1.15;;;;;;;;;;4940532;29;20031;-92
2021/08/31 06:54:53;;;;;;;2.13;1.08;;;;;;;;;;4940572;29;20024;-90
2021/08/31 06:57:20;;;;;;;2.58;1.02;;;;;;;;;;4940513;29;20027;-90
2021/08/31 06:59:46;;;;;;;2.45;1.10;;;;;;;;;;4940605;29;20507;-89
2021/08/31 07:02:12;;;;;;;1.92;1.20;;;;;;;;;;4939578;29;20078;-90
2021/08/31 07:04:38;;;;;;;1.80;1.05;;;;;;;;;;4940302;29;20070;-88
2021/08/31 07:07:04;;;;;;;5.82;1.70;;;;;;;;;;4940397;29;20054;-90
2021/08/31 07:09:30;;;;;;;4.15;1.90;;;;;;;;;;4940065;29;20129;-91
2021/08/31 07:11:56;;;;;;;2.85;1.58;;;;;;;;;;4940308;29;20110;-89
2021/08/31 07:14:23;;;;;;;2.30;1.13;;;;;;;;;;4939943;29;20032;-90
2021/08/31 07:16:49;;;;;;;1.42;0.80;;;;;;;;;;4940780;29;20043;-92
2021/08/31 07:19:15;;;;;;;2.10;0.90;;;;;;;;;;4941244;29;20027;-89
2021/08/31 07:21:41;;;;;;;3.58;1.10;;;;;;;;;;4940552;29;20023;-91
2021/08/31 07:24:07;;;;;;;2.10;1.15;;;;;;;;;;4940020;29;20073;-92
2021/08/31 07:26:33;;;;;;;3.25;1.70;;;;;;;;;;4939771;29;20051;-92
2021/08/31 07:28:59;;;;;;;2.67;1.00;;;;;;;;;;4940359;29;20555;-92
2021/08/31 07:31:25;;;;;;;2.50;1.10;;;;;;;;;;4939772;29;20110;-90
2021/08/31 07:33:52;;;;;;;3.08;1.33;;;;;;;;;;4940227;29;20055;-91
2021/08/31 07:36:21;;;;;;;2.03;1.10;;;;;;;;;;4940579;29;20166;-91
2021/08/31 07:38:47;;;;;;;4.72;1.38;;;;;;;;;;4940010;29;20097;-92
2021/08/31 07:41:14;;;;;;;2.88;1.00;;;;;;;;;;4939648;29;20495;-92
2021/08/31 07:43:41;;;;;;;3.42;1.00;;;;;;;;;;4939878;29;20114;-92
2021/08/31 07:46:07;;;;;;;3.67;1.00;;;;;;;;;;4939846;29;20027;-90
2021/08/31 07:48:33;;;;;;;2.40;1.20;;;;;;;;;;4939442;29;20035;-93
2021/08/31 07:50:59;;;;;;;4.50;1.50;;;;;;;;;;4939609;29;20023;-92
2021/08/31 07:53:26;;;;;;;2.75;1.30;;;;;;;;;;4939838;29;20411;-91
2021/08/31 07:55:52;;;;;;;4.38;1.73;;;;;;;;;;4939481;29;20114;-92
2021/08/31 07:58:18;;;;;;;2.63;1.23;;;;;;;;;;4939646;29;20052;-90
2021/08/31 08:00:44;;;;;;;3.28;1.40;;;;;;;;;;4939936;29;20062;-91
2021/08/31 08:03:10;;;;;;;2.90;1.52;;;;;;;;;;4939317;29;20049;-91
2021/08/31 08:05:36;;;;;;;3.22;1.10;;;;;;;;;;4939400;29;20038;-93
2021/08/31 08:08:02;;;;;;;9.93;1.33;;;;;;;;;;4939307;29;20106;-91
2021/08/31 08:10:28;;;;;;;2.03;1.00;;;;;;;;;;4939221;29;20032;-92
2021/08/31 08:12:55;;;;;;;2.80;1.10;;;;;;;;;;4954757;28;20377;-91
2021/08/31 08:15:23;;;;;;;2.38;1.20;;;;;;;;;;4939405;29;20035;-90
2021/08/31 08:17:49;;;;;;;2.00;0.82;;;;;;;;;;4955474;29;20035;-92
2021/08/31 08:20:16;;;;;;;2.78;1.00;;;;;;;;;;4955816;29;20027;-91
2021/08/31 08:22:42;;;;;;;1.95;0.95;;;;;;;;;;4955069;29;20042;-91
2021/08/31 08:25:08;;;;;;;2.75;0.90;;;;;;;;;;4955095;29;20062;-91
2021/08/31 08:27:34;;;;;;;1.38;0.63;;;;;;;;;;4954912;29;20056;-92
2021/08/31 08:30:01;;;;;;;1.73;0.90;;;;;;;;;;4954945;29;20047;-92
2021/08/31 08:32:28;;;;;;;1.60;0.70;;;;;;;;;;4939111;29;20140;-93
2021/08/31 08:34:54;;;;;;;1.98;1.00;;;;;;;;;;4955179;29;20042;-91
2021/08/31 08:37:20;;;;;;;2.63;1.05;;;;;;;;;;4955208;29;20415;-92
2021/08/31 08:39:46;;;;;;;4.05;1.50;;;;;;;;;;4954966;29;20029;-92
2021/08/31 08:42:13;;;;;;;2.20;1.13;;;;;;;;;;4954985;29;20027;-92
2021/08/31 08:44:39;;;;;;;2.22;1.30;;;;;;;;;;4954805;29;20035;-92
2021/08/31 08:47:08;;;;;;;2.40;1.10;;;;;;;;;;4954784;29;20069;-93
2021/08/31 08:49:34;;;;;;;2.00;1.23;;;;;;;;;;4954775;29;20032;-92
2021/08/31 08:52:01;;;;;;;1.58;0.90;;;;;;;;;;4955076;29;20027;-92
2021/08/31 08:54:28;;;;;;;1.58;0.77;;;;;;;;;;4954870;29;20031;-91
2021/08/31 08:56:54;;;;;;;2.25;1.10;;;;;;;;;;4955109;29;20023;-91
2021/08/31 08:59:21;;;;;;;3.88;1.17;;;;;;;;;;4954465;29;20599;-91
2021/08/31 09:01:49;;;;;;;3.53;1.42;;;;;;;;;;4955608;29;20028;-92
2021/08/31 09:04:17;;;;;;;2.40;1.33;;;;;;;;;;4955409;29;20038;-91
2021/08/31 09:06:44;;;;;;;3.28;1.50;;;;;;;;;;4954690;29;20079;-92
2021/08/31 09:09:11;;;;;;;2.40;1.20;;;;;;;;;;4954884;29;20070;-91
2021/08/31 09:11:38;;;;;;;3.92;1.60;;;;;;;;;;4940877;29;20098;-92
2021/08/31 09:14:23;;;;;;;3.03;1.60;;;;;;;;;;4919620;29;20035;-92
2021/08/31 09:16:58;;;;;;;3.05;1.50;;;;;;;;;;4919712;29;20028;-91
2021/08/31 09:19:33;;;;;;;5.60;2.10;;;;;;;;;;4919980;29;20032;-92
2021/08/31 09:22:15;;;;;;;2.40;1.50;;;;;;;;;;4919710;29;20028;-91
2021/08/31 09:24:41;;;;;;;2.55;1.50;;;;;;;;;;4920551;29;20111;-90
2021/08/31 09:27:08;;;;;;;2.10;1.30;;;;;;;;;;4922933;29;20063;-90
2021/08/31 09:29:40;;;;;;;1.83;1.02;;;;;;;;;;4923165;29;20063;-88
2021/08/31 09:32:10;;;;;;;2.43;1.33;;;;;;;;;;4939994;29;20038;-89
2021/08/31 09:34:41;;;;;;;2.10;1.30;;;;;;;;;;4922807;29;20031;-88
2021/08/31 09:37:25;;;;;;;2.83;1.15;;;;;;;;;;4922891;29;20028;-89
2021/08/31 09:40:07;;;;;;;1.88;1.15;;;;;;;;;;4922905;29;20032;-89
2021/08/31 09:42:34;;;;;;;1.80;1.08;;;;;;;;;;4922898;29;20051;-90
2021/08/31 09:45:06;;;;;;;2.20;1.10;;;;;;;;;;4922908;29;20036;-90
2021/08/31 09:47:36;;;;;;;2.33;1.35;;;;;;;;;;4922504;29;20027;-90
2021/08/31 09:50:03;;;;;;;2.08;1.10;;;;;;;;;;4922768;29;20036;-90
2021/08/31 09:52:29;;;;;;;2.10;1.20;;;;;;;;;;4922710;29;20067;-91
2021/08/31 09:54:56;;;;;;;1.80;1.10;;;;;;;;;;4922770;29;20034;-89
2021/08/31 09:57:30;;;;;;;2.28;1.13;;;;;;;;;;4922267;29;20378;-91
2021/08/31 09:59:56;;;;;;;2.00;1.30;;;;;;;;;;4923760;29;20059;-91
2021/08/31 10:02:24;;;;;;;2.22;1.20;;;;;;;;;;4922788;29;20091;-89
2021/08/31 10:04:51;;;;;;;2.00;1.30;;;;;;;;;;4922260;29;20028;-91
2021/08/31 10:07:17;;;;;;;1.80;1.05;;;;;;;;;;4922570;29;20038;-90
2021/08/31 10:09:43;;;;;;;1.45;0.85;;;;;;;;;;4922349;29;20040;-88
2021/08/31 10:12:10;;;;;;;2.50;1.10;;;;;;;;;;4940014;29;20030;-89
2021/08/31 10:14:46;;;;;;;5.20;1.10;;;;;;;;;;4957313;29;20081;-90
2021/08/31 10:17:12;;;;;;;2.33;0.90;;;;;;;;;;4957379;29;20061;-91
2021/08/31 10:19:42;;;;;;;2.40;0.80;;;;;;;;;;4957137;29;20027;-90
2021/08/31 10:22:10;;;;;;;2.17;0.95;;;;;;;;;;4957689;29;20384;-90
2021/08/31 10:24:37;;;;;;;1.30;0.70;;;;;;;;;;4957676;29;20032;-90
2021/08/31 10:27:22;;;;;;;1.75;0.70;;;;;;;;;;4956756;29;20077;-88
2021/08/31 10:29:48;;;;;;;1.60;0.80;;;;;;;;;;4957355;29;20035;-90
2021/08/31 10:32:31;;;;;;;1.60;0.82;;;;;;;;;;4956783;29;20035;-90
2021/08/31 10:34:57;;;;;;;1.42;0.77;;;;;;;;;;4957039;28;20041;-91
2021/08/31 10:37:25;;;;;;;1.63;1.00;;;;;;;;;;4956685;29;20396;-91
2021/08/31 10:39:52;;;;;;;1.88;0.88;;;;;;;;;;4956959;29;20472;-87
2021/08/31 10:42:25;;;;;;;1.40;0.80;;;;;;;;;;4957197;29;20027;-90
2021/08/31 10:44:52;;;;;;;1.30;0.83;;;;;;;;;;4956625;29;20027;-89
2021/08/31 10:47:19;;;;;;;2.33;0.80;;;;;;;;;;4956930;29;20051;-90
2021/08/31 10:49:57;;;;;;;2.05;1.05;;;;;;;;;;4940974;29;20035;-89
2021/08/31 10:52:33;;;;;;;4.22;1.15;;;;;;;;;;4956841;29;20468;-89
2021/08/31 10:54:59;;;;;;;1.95;1.00;;;;;;;;;;4956676;29;20027;-89
2021/08/31 10:57:38;;;;;;;1.80;0.90;;;;;;;;;;4956536;29;20051;-88
2021/08/31 11:00:04;;;;;;;1.20;0.75;;;;;;;;;;4956700;29;20059;-90
2021/08/31 11:05:24;;;;;;;1.70;0.90;;;;;;;;;;4957826;29;20035;-89
2021/08/31 11:08:10;;;;;;;2.17;1.17;;;;;;;;;;4956167;29;20035;-88
2021/08/31 11:10:44;;;;;;;1.70;0.90;;;;;;;;;;4938275;29;20046;-88
2021/08/31 11:13:10;;;;;;;1.60;0.90;;;;;;;;;;4931338;29;20016;-87
2021/08/31 11:15:36;;;;;;;2.78;1.30;;;;;;;;;;4930156;29;20063;-87
2021/08/31 11:18:07;;;;;;;1.38;0.82;;;;;;;;;;4932286;29;20114;-89
2021/08/31 11:20:34;;;;;;;1.30;0.80;;;;;;;;;;4940381;29;20036;-90
2021/08/31 11:23:03;;;;;;;1.98;1.02;;;;;;;;;;4930276;29;20035;-91
2021/08/31 11:25:37;;;;;;;2.35;0.85;;;;;;;;;;4929135;29;20039;-92
2021/08/31 11:28:06;;;;;;;2.20;1.10;;;;;;;;;;4955490;28;20043;-89
2021/08/31 11:30:46;;;;;;;1.75;0.82;;;;;;;;;;4928550;29;20166;-87
2021/08/31 11:33:13;;;;;;;1.42;0.90;;;;;;;;;;4971212;28;20472;-90
2021/08/31 11:35:39;;;;;;;3.83;0.95;;;;;;;;;;4940950;29;20465;-89
2021/08/31 11:38:05;;;;;;;1.40;0.60;;;;;;;;;;4940044;29;20031;-91
2021/08/31 11:40:32;;;;;;;1.45;0.68;;;;;;;;;;4930579;29;20490;-92
2021/08/31 11:42:58;;;;;;;1.58;0.70;;;;;;;;;;4921173;29;20031;-92
2021/08/31 11:45:41;;;;;;;1.38;0.77;;;;;;;;;;4921094;29;20362;-90
2021/08/31 11:48:08;;;;;;;1.15;0.60;;;;;;;;;;4920079;29;20024;-92
2021/08/31 11:50:35;;;;;;;1.40;0.70;;;;;;;;;;4920837;29;20051;-87
2021/08/31 11:53:18;;;;;;;3.40;0.80;;;;;;;;;;4936293;29;20027;-92
2021/08/31 11:55:53;;;;;;;1.58;0.73;;;;;;;;;;4940853;29;20027;-91
2021/08/31 11:58:19;;;;;;;1.33;0.65;;;;;;;;;;4930055;29;20039;-91
2021/08/31 12:00:46;;;;;;;1.60;0.70;;;;;;;;;;4920328;29;20401;-91
2021/08/31 12:03:23;;;;;;;1.33;0.80;;;;;;;;;;4920079;29;20028;-89
2021/08/31 12:05:54;;;;;;;5.60;0.70;;;;;;;;;;4920840;29;20473;-89
2021/08/31 12:08:21;;;;;;;1.50;0.52;;;;;;;;;;4919898;29;20134;-88
2021/08/31 12:10:47;;;;;;;2.20;0.80;;;;;;;;;;4926856;29;20379;-86
2021/08/31 12:13:13;;;;;;;1.25;0.60;;;;;;;;;;4954579;29;20027;-85
2021/08/31 12:15:40;;;;;;;1.73;0.70;;;;;;;;;;4954796;29;20035;-88
2021/08/31 12:18:07;;;;;;;1.55;0.85;;;;;;;;;;4938899;29;20055;-86
2021/08/31 12:20:36;;;;;;;1.33;0.70;;;;;;;;;;4954685;29;20023;-86
2021/08/31 12:23:04;;;;;;;2.40;0.75;;;;;;;;;;4954304;29;20461;-85
2021/08/31 12:25:43;;;;;;;2.35;0.80;;;;;;;;;;4955318;29;20528;-91
2021/08/31 12:28:10;;;;;;;1.30;0.70;;;;;;;;;;4955202;29;20126;-89
2021/08/31 12:30:39;;;;;;;2.00;0.80;;;;;;;;;;4955304;29;20039;-87
2021/08/31 12:33:05;;;;;;;1.85;0.80;;;;;;;;;;4955126;29;20464;-91
2021/08/31 12:38:04;;;;;;;;;;;;;;;;;;4959101;28;20031;-89
2021/08/31 12:40:31;;;;;;;2.00;1.10;;;;;;;;;;4938851;29;19961;-88
2021/08/31 12:43:24;;;;;;;2.67;0.95;;;;;;;;;;4938911;29;20038;-90
2021/08/31 12:45:51;;;;;;;1.73;0.88;;;;;;;;;;4935396;29;20039;-91
2021/08/31 12:48:18;;;;;;;2.30;1.20;;;;;;;;;;4938514;29;20046;-89
2021/08/31 12:50:54;;;;;;;1.77;1.10;;;;;;;;;;4949019;29;20043;-88
2021/08/31 12:53:34;;;;;;;2.45;1.27;;;;;;;;;;4956702;29;20027;-91
2021/08/31 12:56:04;;;;;;;3.85;1.48;;;;;;;;;;4939833;29;20484;-91
2021/08/31 12:58:35;;;;;;;3.33;1.70;;;;;;;;;;4939851;29;20035;-92
2021/08/31 13:01:16;;;;;;;3.15;1.20;;;;;;;;;;4943332;29;20388;-91
2021/08/31 13:03:50;;;;;;;2.97;1.67;;;;;;;;;;4942925;29;20061;-91
2021/08/31 13:06:31;;;;;;;3.35;1.75;;;;;;;;;;4942499;29;20034;-90
2021/08/31 13:08:58;;;;;;;6.72;1.88;;;;;;;;;;4942682;29;20035;-89
2021/08/31 13:11:24;;;;;;;3.58;1.58;;;;;;;;;;4939877;29;20059;-89
2021/08/31 13:13:50;;;;;;;3.75;1.80;;;;;;;;;;4942944;29;20122;-89
2021/08/31 13:16:16;;;;;;;3.35;2.05;;;;;;;;;;4948260;29;20023;-89
2021/08/31 13:18:42;;;;;;;3.38;1.80;;;;;;;;;;4958429;29;20046;-88
2021/08/31 13:21:09;;;;;;;3.85;1.90;;;;;;;;;;4958372;29;20034;-87
2021/08/31 13:23:35;;;;;;;4.28;2.40;;;;;;;;;;4957999;29;20072;-89
2021/08/31 13:26:01;;;;;;;4.47;2.15;;;;;;;;;;4958178;29;20105;-91
2021/08/31 13:28:27;;;;;;;3.45;2.17;;;;;;;;;;4950308;29;20131;-88
2021/08/31 13:30:53;;;;;;;4.85;2.42;;;;;;;;;;4923649;29;20027;-89
2021/08/31 13:33:19;;;;;;;4.60;3.00;;;;;;;;;;4923337;29;20439;-89
2021/08/31 13:35:46;;;;;;;5.10;2.67;;;;;;;;;;4924142;29;20484;-87
2021/08/31 13:38:12;;;;;;;4.32;2.78;;;;;;;;;;4924523;29;20059;-89
2021/08/31 13:40:38;;;;;;;5.20;2.60;;;;;;;;;;4923642;29;20034;-90
2021/08/31 13:43:04;;;;;;;6.13;3.22;;;;;;;;;;4923067;29;20055;-91
2021/08/31 13:45:30;;;;;;;5.90;2.70;;;;;;;;;;4923182;29;20035;-89
2021/08/31 13:47:57;;;;;;;4.85;2.97;;;;;;;;;;4923385;29;20035;-91
2021/08/31 13:50:23;;;;;;;5.00;2.88;;;;;;;;;;4923275;29;20070;-90
2021/08/31 13:52:49;;;;;;;5.13;2.80;;;;;;;;;;4923618;29;20469;-89
2021/08/31 13:55:18;;;;;;;4.57;2.50;;;;;;;;;;4923183;29;20028;-91
2021/08/31 13:57:44;;;;;;;4.30;2.63;;;;;;;;;;4923581;29;20476;-92
2021/08/31 14:00:11;;;;;;;5.90;3.03;;;;;;;;;;4924727;29;20099;-92
2021/08/31 14:02:37;;;;;;;4.97;2.80;;;;;;;;;;4927794;29;20040;-92
2021/08/31 14:05:04;;;;;;;4.95;2.75;;;;;;;;;;4923494;29;20023;-92
2021/08/31 14:07:30;;;;;;;6.15;3.15;;;;;;;;;;4922778;29;20059;-94
2021/08/31 14:09:56;;;;;;;5.22;3.13;;;;;;;;;;4922402;29;20031;-93
2021/08/31 14:12:22;;;;;;;5.10;2.75;;;;;;;;;;4922836;29;20083;-92
2021/08/31 14:14:49;;;;;;;6.30;3.58;;;;;;;;;;4923109;29;20032;-94
2021/08/31 14:17:15;;;;;;;5.85;3.20;;;;;;;;;;4923104;29;20070;-93
2021/08/31 14:19:41;;;;;;;5.93;3.30;;;;;;;;;;4922950;29;20543;-92
2021/08/31 14:22:07;;;;;;;6.47;3.20;;;;;;;;;;4922745;29;20119;-93
2021/08/31 14:24:34;;;;;;;5.45;3.22;;;;;;;;;;4922833;29;20123;-94
2021/08/31 14:27:00;;;;;;;5.95;3.38;;;;;;;;;;4922205;29;20209;-94
2021/08/31 14:29:26;;;;;;;4.85;3.25;;;;;;;;;;4922416;29;20039;-94
2021/08/31 14:31:53;;;;;;;5.03;3.17;;;;;;;;;;4922506;29;20448;-93
2021/08/31 14:34:19;;;;;;;7.15;3.60;;;;;;;;;;4922925;29;20066;-94
2021/08/31 14:36:47;;;;;;;4.68;3.30;;;;;;;;;;4922878;29;20057;-93
2021/08/31 14:39:13;;;;;;;5.55;3.35;;;;;;;;;;4925861;29;20536;-90
2021/08/31 14:41:39;;;;;;;4.63;2.90;;;;;;;;;;4922911;29;20118;-90
2021/08/31 14:44:07;;;;;;;5.60;3.10;;;;;;;;;;4922914;29;20027;-90
2021/08/31 14:46:33;;;;;;;4.32;2.60;;;;;;;;;;4922420;29;20123;-90
2021/08/31 14:48:59;;;;;;;4.80;2.97;;;;;;;;;;4921578;29;20028;-90
2021/08/31 14:51:25;;;;;;;5.07;2.60;;;;;;;;;;4922352;29;20035;-87
2021/08/31 14:53:52;;;;;;;5.93;2.65;;;;;;;;;;4922083;29;20028;-93
2021/08/31 14:56:18;;;;;;;7.05;2.40;;;;;;;;;;4923486;29;20108;-90
2021/08/31 14:58:45;;;;;;;3.58;2.30;;;;;;;;;;4924177;29;20024;-93
2021/08/31 15:01:11;;;;;;;4.30;2.38;;;;;;;;;;4921854;29;20038;-92
2021/08/31 15:03:38;;;;;;;5.57;2.40;;;;;;;;;;4921878;29;20039;-92
2021/08/31 15:06:04;;;;;;;3.88;2.30;;;;;;;;;;4922551;29;20071;-92
2021/08/31 15:08:30;;;;;;;3.83;2.40;;;;;;;;;;4927890;29;20039;-88
2021/08/31 15:10:56;;;;;;;4.10;2.00;;;;;;;;;;4924089;29;20503;-92
2021/08/31 15:13:22;;;;;;;6.20;3.00;;;;;;;;;;4925257;29;20024;-90
2021/08/31 15:15:48;;;;;;;3.60;2.13;;;;;;;;;;4922309;29;20449;-91
2021/08/31 15:18:14;;;;;;;3.92;2.13;;;;;;;;;;4921734;29;20020;-90
2021/08/31 15:20:40;;;;;;;3.47;2.17;;;;;;;;;;4921234;29;20028;-90
2021/08/31 15:23:06;;;;;;;3.28;2.05;;;;;;;;;;4920685;29;20063;-91
2021/08/31 15:25:33;;;;;;;2.60;1.50;;;;;;;;;;4921436;29;20118;-88
2021/08/31 15:27:59;;;;;;;2.75;1.52;;;;;;;;;;4937854;29;20055;-93
2021/08/31 15:30:25;;;;;;;2.92;1.63;;;;;;;;;;4921303;29;20036;-91
2021/08/31 15:32:52;;;;;;;3.92;1.60;;;;;;;;;;4921395;29;20027;-89
2021/08/31 15:35:20;;;;;;;3.80;1.42;;;;;;;;;;4921467;29;20051;-90
2021/08/31 15:37:47;;;;;;;4.25;1.73;;;;;;;;;;4921559;29;20114;-91
2021/08/31 15:40:13;;;;;;;5.50;1.80;;;;;;;;;;4920952;29;20062;-90
2021/08/31 15:42:40;;;;;;;2.30;1.48;;;;;;;;;;4937819;29;20031;-90
2021/08/31 15:45:08;;;;;;;2.20;1.23;;;;;;;;;;4921406;29;20082;-93
2021/08/31 15:47:34;;;;;;;2.67;1.50;;;;;;;;;;4921108;29;20028;-92
2021/08/31 15:50:00;;;;;;;2.65;1.30;;;;;;;;;;4921026;29;20040;-93
2021/08/31 15:52:26;;;;;;;3.50;1.17;;;;;;;;;;4921124;29;20078;-92
2021/08/31 15:54:52;;;;;;;2.53;1.40;;;;;;;;;;4921376;29;20082;-92
2021/08/31 15:57:19;;;;;;;2.67;1.30;;;;;;;;;;4920968;29;20075;-93
2021/08/31 15:59:45;;;;;;;2.47;1.40;;;;;;;;;;4920762;29;20028;-91
2021/08/31 16:02:15;;;;;;;2.60;1.40;;;;;;;;;;4920673;29;20027;-88
2021/08/31 16:04:41;;;;;;;3.53;1.40;;;;;;;;;;4920788;29;20027;-89
2021/08/31 16:07:07;;;;;;;2.60;1.33;;;;;;;;;;4920384;29;20036;-93
2021/08/31 16:09:34;;;;;;;3.72;1.52;;;;;;;;;;4921066;29;20074;-91
2021/08/31 16:12:00;;;;;;;3.40;1.60;;;;;;;;;;4921049;29;20024;-92
2021/08/31 16:14:27;;;;;;;2.35;1.23;;;;;;;;;;4920553;29;20126;-91
2021/08/31 16:16:53;;;;;;;1.80;1.10;;;;;;;;;;4920776;29;20020;-92
2021/08/31 16:19:20;;;;;;;2.25;1.30;;;;;;;;;;4920543;29;20039;-93
2021/08/31 16:21:46;;;;;;;2.55;1.40;;;;;;;;;;4921658;29;20027;-92
2021/08/31 16:24:13;;;;;;;4.50;1.65;;;;;;;;;;4937196;29;20035;-92
2021/08/31 16:26:40;;;;;;;4.22;1.40;;;;;;;;;;4920419;29;20048;-93
2021/08/31 16:29:06;;;;;;;4.85;1.40;;;;;;;;;;4920558;29;20039;-92
2021/08/31 16:31:33;;;;;;;2.70;1.48;;;;;;;;;;4920647;29;20412;-89
2021/08/31 16:33:59;;;;;;;1.90;1.00;;;;;;;;;;4925497;28;20076;-89
2021/08/31 16:36:25;;;;;;;3.90;1.52;;;;;;;;;;4952384;29;20035;-90
2021/08/31 16:38:51;;;;;;;2.45;1.50;;;;;;;;;;4939227;29;20445;-90
2021/08/31 16:41:17;;;;;;;2.67;1.58;;;;;;;;;;4927188;29;20070;-90
2021/08/31 16:43:43;;;;;;;2.70;1.15;;;;;;;;;;4937148;29;20130;-89
2021/08/31 16:46:10;;;;;;;3.58;1.50;;;;;;;;;;4920480;29;20031;-89
2021/08/31 16:48:37;;;;;;;2.40;1.30;;;;;;;;;;4920087;29;20095;-89
2021/08/31 16:51:04;;;;;;;1.95;1.27;;;;;;;;;;4920545;29;20039;-89
2021/08/31 16:53:30;;;;;;;4.97;1.50;;;;;;;;;;4920379;29;20114;-90
2021/08/31 16:55:58;;;;;;;3.08;1.40;;;;;;;;;;4919858;29;20035;-90
2021/08/31 16:58:24;;;;;;;2.20;1.10;;;;;;;;;;4919768;29;20186;-92
2021/08/31 17:00:50;;;;;;;2.35;1.15;;;;;;;;;;4920214;29;20032;-90
2021/08/31 17:03:17;;;;;;;2.63;1.58;;;;;;;;;;4921222;29;20027;-88
2021/08/31 17:05:43;;;;;;;2.22;1.35;;;;;;;;;;4925013;29;20477;-89
2021/08/31 17:08:09;;;;;;;1.70;1.10;;;;;;;;;;4920135;29;20023;-88
2021/08/31 17:10:36;;;;;;;2.60;1.40;;;;;;;;;;4920391;29;20107;-89
2021/08/31 17:13:03;;;;;;;3.90;1.50;;;;;;;;;;4919895;29;20024;-89
2021/08/31 17:15:29;;;;;;;2.70;1.38;;;;;;;;;;4919996;29;20079;-90
2021/08/31 17:17:56;;;;;;;2.70;1.60;;;;;;;;;;4919907;29;20028;-90
2021/08/31 17:20:22;;;;;;;2.88;1.42;;;;;;;;;;4920069;29;20028;-89